Relevés horaires Laegern (Suisse)


Relevés horaires à Laegern - Lundi 10 Mai 2021
Heure UTC1 Température [°C] Vent [km/h] Hum. [%] Pres.4 [hPa] Visi. [Km] Nébu. [octa] Préc.5 [mm] Cond.
2m. Res. Ros. Dir.2 Vit. Moy. Raf.3
23:00 10.3 10.3 8.0 NNE 0.0 -- 27.8 86 850(-0.9/3h) -- -- -- --
22:00 10.1 10.1 8.2 NNO 0.0 -- 24.1 88 850(0.2/3h) -- -- -- --
21:00 10.4 10.4 8.2 NNO 0.0 -- 27.8 86 850(0.1/3h) -- -- -- --
20:00 10.7 10.7 8.0 NO 0.0 -- 27.8 83 850(0.0/3h) -- -- -- --
19:00 10.5 10.5 7.9 NO 0.0 -- 27.8 84 850(-0.5/3h) -- -- -- --
18:00 10.6 10.6 7.5 NO 0.0 -- 38.9 81 850(-0.4/3h) -- -- -- --
17:00 11.0 11.0 7.9 NO 0.0 -- 29.6 81 850(-0.7/3h) -- -- -- --
16:00 11.7 11.7 8.4 ONO 0.0 -- 27.8 80 850(-0.8/3h) -- -- -- --
15:00 12.3 12.3 8.2 NO 0.0 -- 38.9 76 850(-1.0/3h) -- -- -- --
14:00 12.7 12.7 8.1 NO 0.0 -- 33.3 74 850(-0.2/3h) -- -- -- --
13:00 11.8 11.8 8.3 NO 0.0 -- 38.9 79 850(0.8/3h) -- -- -- --
12:00 11.8 11.8 7.8 ONO 0.0 -- 46.3 76 850(1.2/3h) -- -- -- --
11:00 12.0 12.0 8.7 ONO 0.0 -- 46.3 80 850(0.3/3h) -- -- -- --
10:00 12.7 12.7 8.8 NO 0.0 -- 44.4 77 850(0.2/3h) -- -- -- --
09:00 16.3 16.3 7.2 SSO 0.0 -- 29.6 55 850(0.6/3h) -- -- -- --
08:00 16.7 16.7 7.8 O 0.0 -- 29.6 56 850(2.6/3h) -- -- -- --
07:00 17.2 17.2 4.2 O 0.0 -- 29.6 42 850(2.0/3h) -- -- -- --
06:00 17.1 17.1 3.8 SO 0.0 -- 51.9 41 850(1.4/3h) -- -- -- --
05:00 17.1 17.1 3.1 S 0.0 -- 37.0 39 850(0.5/3h) -- -- -- --
04:00 17.9 17.9 2.6 S 0.0 -- 38.9 36 850(0.3/3h) -- -- -- --
03:00 18.3 18.3 2.5 S 0.0 -- 51.9 35 850(0.1/3h) -- -- -- --
02:00 17.8 17.8 2.8 SSE 0.0 -- 51.9 37 850(-1.1/3h) -- -- -- --
01:00 17.7 17.7 2.7 SSE 0.0 -- 48.2 37 850(-1.4/3h) -- -- -- --
00:00 17.4 17.4 2.5 SSE 0.0 -- 50.0 37 850(-1.2/3h) -- -- -- --

1 Coordinated Universal Time. Actuellement il est 18:00 locale et 16:00 UTC.

2 Le vent souffle depuis la direction indiquée vers la direction oposée.

3 Les rafales max. sont disponible 40 min après l'heure du relevé.

4 Pour les stations d'altitude (plus de 600m) le géopotentiel du niveau le plus proche de la pression obligatoire est indiqué.

5 Les stations disposant d'un diffuseur peuvent indiquer "trace". Cela signifie que des précipitations ont touchés le sol mais que la quantité est inférieure à 0.1 mm.

Copyright

Les données affichées sur cette page sont la propriété exclusive de Météo Suisse.

Récapitulatif de la journée
Température [°C] Vent [km/h] Ensoleillement4 [h] Precipitations totale5 [mm] Pression [Hpa]
Min1 Max.2 Moy.3 Max. Min Max.
17.1 17.5 0 51.9 1 h 54 min 0 850.0 850.0

1 Température minimale relevée entre 18:00 UTC la veille et 18:00 UTC le jour donné.

2 Température maximale relevée entre 06:00 UTC le jour donné et 06:00 UTC le lendemain.

3 Vent moyen de la journée basé sur les relevés horaires.

4 Ensoleillement en heures relevé entre 06:00 UTC la veille et 06:00 UTC le jour donné.

5 Précipitations totales tombées entre 06:00 UTC la jour donné et 06:00 UTC le lendemain.

Graphiques horaires